createdAt,value
2022-12-13T00:01:57.886Z,47.97
2022-12-13T00:04:26.480Z,50.63
2022-12-13T00:06:55.444Z,47.13
2022-12-13T00:09:24.731Z,45.23
2022-12-13T00:11:55.727Z,50.00
2022-12-13T00:14:23.473Z,49.20
2022-12-13T00:16:51.647Z,46.23
2022-12-13T00:19:19.988Z,48.23
2022-12-13T00:21:47.685Z,50.53
2022-12-13T00:24:16.228Z,43.77
2022-12-13T00:26:45.620Z,48.23
2022-12-13T00:29:13.943Z,50.47
2022-12-13T00:34:30.860Z,41.90
2022-12-13T00:37:00.288Z,48.90
2022-12-13T00:39:28.459Z,47.83
2022-12-13T00:41:57.820Z,43.03
2022-12-13T00:44:25.435Z,45.93
2022-12-13T00:46:53.454Z,43.13
2022-12-13T00:49:21.395Z,45.67
2022-12-13T00:51:49.673Z,40.80
2022-12-13T00:54:17.734Z,44.63
2022-12-13T00:56:45.837Z,42.70
2022-12-13T00:59:16.382Z,47.00
2022-12-13T01:01:45.571Z,46.10
2022-12-13T01:04:14.556Z,39.93
2022-12-13T01:06:43.940Z,50.03
2022-12-13T01:09:18.492Z,46.00
2022-12-13T01:11:47.840Z,49.27
2022-12-13T01:14:18.984Z,44.60
2022-12-13T01:16:46.986Z,45.17
2022-12-13T01:19:15.024Z,46.07
2022-12-13T01:21:43.286Z,43.63
2022-12-13T01:24:11.356Z,41.03
2022-12-13T01:26:39.282Z,45.10
2022-12-13T01:29:11.805Z,44.13
2022-12-13T01:31:43.102Z,44.13
2022-12-13T01:34:12.904Z,44.63
2022-12-13T01:36:41.903Z,40.03
2022-12-13T01:39:15.044Z,42.63
2022-12-13T01:41:44.665Z,42.83
2022-12-13T01:44:45.848Z,40.40
2022-12-13T01:47:17.164Z,45.73
2022-12-13T01:49:45.025Z,47.00
2022-12-13T01:52:15.336Z,40.90
2022-12-13T01:54:50.741Z,46.33
2022-12-13T01:57:21.752Z,45.00
2022-12-13T01:59:50.641Z,51.23
2022-12-13T02:02:24.412Z,45.13
2022-12-13T02:04:56.708Z,49.87
2022-12-13T02:07:29.314Z,46.13
2022-12-13T02:09:59.443Z,44.37
2022-12-13T02:12:29.782Z,41.07
2022-12-13T02:15:00.837Z,39.90
2022-12-13T02:17:52.393Z,53.93
2022-12-13T02:20:34.907Z,43.00
2022-12-13T02:23:18.173Z,45.73
2022-12-13T02:25:59.216Z,36.03
2022-12-13T02:28:36.359Z,42.30
2022-12-13T02:31:09.008Z,44.93
2022-12-13T02:33:42.779Z,43.60
2022-12-13T02:36:14.706Z,48.13
2022-12-13T02:38:50.738Z,43.63
2022-12-13T02:41:21.741Z,41.47
2022-12-13T02:43:52.286Z,46.57
2022-12-13T02:46:32.368Z,55.40
2022-12-13T02:49:01.398Z,45.07
2022-12-13T02:51:29.976Z,43.43
2022-12-13T02:53:57.636Z,48.23
2022-12-13T02:56:25.258Z,43.33
2022-12-13T02:58:55.136Z,48.13
2022-12-13T03:01:40.630Z,41.97
2022-12-13T03:04:13.853Z,52.33
2022-12-13T03:06:48.789Z,49.20
2022-12-13T03:09:26.466Z,46.83
2022-12-13T03:12:24.786Z,47.07
2022-12-13T03:15:00.140Z,46.03
2022-12-13T03:17:33.741Z,43.03
2022-12-13T03:20:02.794Z,41.93
2022-12-13T03:22:40.425Z,41.87
2022-12-13T03:25:08.600Z,47.03
2022-12-13T03:27:36.484Z,43.77
2022-12-13T03:30:04.464Z,45.27
2022-12-13T03:32:33.533Z,42.67
2022-12-13T03:35:01.228Z,46.27
2022-12-13T03:37:29.187Z,39.33
2022-12-13T03:39:57.462Z,42.50
2022-12-13T03:42:25.116Z,42.43
2022-12-13T03:44:52.823Z,39.90
2022-12-13T03:47:20.868Z,47.13
2022-12-13T03:49:54.068Z,41.07
2022-12-13T03:52:22.090Z,40.37
2022-12-13T03:54:49.786Z,46.53
2022-12-13T03:57:17.439Z,42.00
2022-12-13T03:59:45.258Z,47.43
2022-12-13T04:02:13.065Z,49.83
2022-12-13T04:04:40.699Z,49.60
2022-12-13T04:07:22.044Z,39.30
2022-12-13T04:09:50.406Z,44.03
2022-12-13T04:12:35.676Z,41.63
2022-12-13T04:15:03.445Z,45.10
2022-12-13T04:17:31.071Z,44.20
2022-12-13T04:19:58.671Z,47.77
2022-12-13T04:22:27.689Z,49.87
2022-12-13T04:24:55.380Z,49.27
2022-12-13T04:27:23.036Z,47.47
2022-12-13T04:29:50.776Z,43.73
2022-12-13T04:32:26.731Z,46.60
2022-12-13T04:35:01.338Z,38.20
2022-12-13T04:37:31.241Z,47.03
2022-12-13T04:40:00.429Z,48.27
2022-12-13T04:42:28.824Z,44.67
2022-12-13T04:44:56.403Z,43.57
2022-12-13T04:47:23.968Z,42.60
2022-12-13T04:49:51.575Z,41.70
2022-12-13T04:52:22.624Z,41.43
2022-12-13T04:54:55.551Z,41.87
2022-12-13T04:57:24.212Z,43.83
2022-12-13T04:59:51.783Z,44.10
2022-12-13T05:02:23.607Z,45.37
2022-12-13T05:04:53.631Z,43.67
2022-12-13T05:07:22.076Z,43.77
2022-12-13T05:09:49.818Z,47.97
2022-12-13T05:12:22.307Z,40.87
2022-12-13T05:14:50.610Z,43.57
2022-12-13T05:17:18.201Z,46.70
2022-12-13T05:19:45.966Z,34.27
2022-12-13T05:22:19.763Z,43.60
2022-12-13T05:24:48.901Z,41.87
2022-12-13T05:27:24.526Z,49.40
2022-12-13T05:30:03.863Z,40.97
2022-12-13T05:32:43.574Z,39.73
2022-12-13T05:35:13.125Z,43.10
2022-12-13T05:37:41.035Z,44.87
2022-12-13T05:40:10.813Z,42.90
2022-12-13T05:42:39.894Z,37.97
2022-12-13T05:45:08.844Z,51.30
2022-12-13T05:47:36.408Z,41.10
2022-12-13T05:50:04.831Z,36.57
2022-12-13T05:52:32.491Z,41.23
2022-12-13T05:55:00.976Z,40.60
2022-12-13T05:57:29.485Z,42.43
2022-12-13T05:59:58.820Z,41.13
2022-12-13T06:02:26.544Z,39.67
2022-12-13T06:04:54.283Z,37.53
2022-12-13T06:07:21.857Z,41.27
2022-12-13T06:09:49.677Z,43.43
2022-12-13T06:12:31.975Z,44.20
2022-12-13T06:15:01.926Z,38.03
2022-12-13T06:17:32.371Z,41.57
2022-12-13T06:20:00.612Z,39.97
2022-12-13T06:22:28.311Z,44.97
2022-12-13T06:24:56.206Z,41.43
2022-12-13T06:27:24.139Z,44.73
2022-12-13T06:29:51.766Z,40.60
2022-12-13T06:32:21.045Z,45.00
2022-12-13T06:34:48.706Z,41.83
2022-12-13T06:37:16.638Z,35.73
2022-12-13T06:39:44.722Z,40.80
2022-12-13T06:42:22.197Z,37.60
2022-12-13T06:44:55.802Z,39.80
2022-12-13T06:47:31.888Z,40.13
2022-12-13T06:50:05.352Z,44.67
2022-12-13T06:52:33.632Z,36.57
2022-12-13T06:55:01.254Z,38.63
2022-12-13T06:57:28.886Z,39.57
2022-12-13T06:59:56.550Z,39.97
2022-12-13T07:02:26.191Z,42.40
2022-12-13T07:04:55.571Z,40.70
2022-12-13T07:07:24.510Z,42.13
2022-12-13T07:09:52.103Z,40.33
2022-12-13T07:12:21.013Z,48.37
2022-12-13T07:14:48.742Z,39.27
2022-12-13T07:17:32.839Z,40.30
2022-12-13T07:20:07.555Z,37.90
2022-12-13T07:22:37.732Z,42.60
2022-12-13T07:25:08.457Z,41.17
2022-12-13T07:28:01.226Z,42.23
2022-12-13T07:30:30.336Z,39.67
2022-12-13T07:32:58.182Z,41.67
2022-12-13T07:35:27.189Z,38.23
2022-12-13T07:37:54.784Z,41.20
2022-12-13T07:40:22.403Z,43.40
2022-12-13T07:42:50.907Z,37.63
2022-12-13T07:45:18.604Z,42.60
2022-12-13T07:47:46.310Z,41.63
2022-12-13T07:50:25.158Z,39.33
2022-12-13T07:52:54.648Z,43.50
2022-12-13T07:55:32.882Z,34.40
2022-12-13T07:58:04.979Z,42.70
2022-12-13T08:00:32.960Z,41.13
2022-12-13T08:03:04.060Z,36.50
2022-12-13T08:05:38.165Z,39.47
2022-12-13T08:08:10.087Z,36.90
2022-12-13T08:10:37.866Z,36.43
2022-12-13T08:13:05.743Z,37.20
2022-12-13T08:15:33.753Z,37.77
2022-12-13T08:18:01.852Z,33.80
2022-12-13T08:20:29.492Z,35.57
2022-12-13T08:23:02.660Z,34.73
2022-12-13T08:25:32.343Z,33.70
2022-12-13T08:28:01.957Z,35.07
2022-12-13T08:30:31.526Z,38.63
2022-12-13T08:32:59.131Z,34.20
2022-12-13T08:35:34.504Z,42.53
2022-12-13T08:38:02.673Z,33.93
2022-12-13T08:40:30.329Z,32.77
2022-12-13T08:42:59.334Z,31.47
2022-12-13T08:45:27.077Z,36.63
2022-12-13T08:47:54.759Z,37.23
2022-12-13T08:50:22.381Z,34.03
2022-12-13T08:52:50.072Z,35.10
2022-12-13T08:55:21.092Z,37.07
2022-12-13T08:58:01.048Z,29.93
2022-12-13T09:00:29.151Z,35.07
2022-12-13T09:03:04.376Z,37.77
2022-12-13T09:05:35.117Z,32.77
2022-12-13T09:08:04.225Z,33.10
2022-12-13T09:10:40.818Z,34.83
2022-12-13T09:13:11.444Z,29.13
2022-12-13T09:15:46.149Z,36.93
2022-12-13T09:18:15.376Z,32.40
2022-12-13T09:20:51.504Z,27.83
2022-12-13T09:23:23.506Z,32.33
2022-12-13T09:26:05.872Z,33.50
2022-12-13T09:28:36.851Z,28.70
2022-12-13T09:31:08.529Z,34.33
2022-12-13T09:33:36.573Z,30.27
2022-12-13T09:36:12.248Z,26.53
2022-12-13T09:38:39.911Z,27.73
2022-12-13T09:41:19.671Z,27.70
2022-12-13T09:43:51.511Z,34.67
2022-12-13T09:46:26.828Z,25.70
2022-12-13T09:49:03.852Z,28.43
2022-12-13T09:51:43.057Z,30.13
2022-12-13T09:54:17.738Z,27.17
2022-12-13T09:56:51.214Z,28.17
2022-12-13T09:59:22.719Z,30.07
2022-12-13T10:01:50.470Z,29.47
2022-12-13T10:04:18.240Z,24.47
2022-12-13T10:06:45.801Z,25.57
2022-12-13T10:09:14.636Z,27.13
2022-12-13T10:11:50.758Z,31.83
2022-12-13T10:14:23.848Z,28.30
2022-12-13T10:16:53.258Z,24.10
2022-12-13T10:19:28.223Z,25.93
2022-12-13T10:22:02.309Z,29.30
2022-12-13T10:24:36.792Z,23.20
2022-12-13T10:27:12.577Z,25.90
2022-12-13T10:29:59.907Z,31.07
2022-12-13T10:32:27.528Z,24.00
2022-12-13T10:34:56.290Z,27.37
2022-12-13T10:37:31.487Z,29.83
2022-12-13T10:40:00.261Z,29.90
2022-12-13T10:42:33.716Z,29.93
2022-12-13T10:45:15.224Z,28.27
2022-12-13T10:47:43.774Z,28.93
2022-12-13T10:50:24.513Z,26.20
2022-12-13T10:52:52.416Z,24.63
2022-12-13T10:55:27.087Z,23.53
2022-12-13T10:57:56.009Z,26.47
2022-12-13T11:00:37.616Z,25.73
2022-12-13T11:03:05.910Z,26.20
2022-12-13T11:05:34.739Z,24.37
2022-12-13T11:08:17.059Z,28.80
2022-12-13T11:10:44.933Z,26.17
2022-12-13T11:13:24.832Z,29.17
2022-12-13T11:15:57.140Z,26.33
2022-12-13T11:18:26.963Z,28.57
2022-12-13T11:20:57.991Z,27.63
2022-12-13T11:23:29.143Z,25.73
2022-12-13T11:25:58.142Z,29.60
2022-12-13T11:28:42.599Z,23.87
2022-12-13T11:31:17.388Z,27.20
2022-12-13T11:33:53.589Z,26.80
2022-12-13T11:36:28.694Z,24.00
2022-12-13T11:39:07.105Z,24.20
2022-12-13T11:41:37.431Z,28.83
2022-12-13T11:44:11.428Z,28.63
2022-12-13T11:46:43.531Z,23.50
2022-12-13T11:49:14.727Z,22.70
2022-12-13T11:51:44.555Z,23.37
2022-12-13T11:54:23.539Z,24.93
2022-12-13T11:57:00.075Z,21.60
2022-12-13T11:59:39.875Z,25.67
2022-12-13T12:02:17.593Z,25.30
2022-12-13T12:04:47.323Z,25.33
2022-12-13T12:07:33.545Z,26.03
2022-12-13T12:10:10.945Z,19.33
2022-12-13T12:12:39.298Z,22.07
2022-12-13T12:15:16.248Z,20.30
2022-12-13T12:17:45.698Z,21.27
2022-12-13T12:20:14.607Z,22.23
2022-12-13T12:22:58.132Z,18.80
2022-12-13T12:25:29.702Z,19.57
2022-12-13T12:28:04.441Z,18.50
2022-12-13T12:30:38.718Z,19.20
2022-12-13T12:33:13.125Z,21.70
2022-12-13T12:35:53.372Z,17.50
2022-12-13T12:38:38.242Z,19.33
2022-12-13T12:41:17.084Z,15.57
2022-12-13T12:43:46.081Z,16.90
2022-12-13T12:46:28.511Z,17.37
2022-12-13T12:49:12.158Z,18.90
2022-12-13T12:51:45.652Z,16.23
2022-12-13T12:54:32.247Z,17.50
2022-12-13T12:57:07.558Z,18.27
2022-12-13T12:59:43.993Z,17.63
2022-12-13T13:02:18.268Z,17.43
2022-12-13T13:04:49.564Z,18.07
2022-12-13T13:07:23.497Z,18.90
2022-12-13T13:09:55.025Z,22.87
2022-12-13T13:12:28.957Z,16.30
2022-12-13T13:14:57.396Z,19.83
2022-12-13T13:17:47.489Z,16.10
2022-12-13T13:20:26.202Z,16.73
2022-12-13T13:23:17.612Z,16.87
2022-12-13T13:26:07.663Z,21.33
2022-12-13T13:28:30.316Z,16.60
2022-12-13T13:31:05.541Z,17.60
2022-12-13T13:33:45.254Z,18.13
2022-12-13T13:39:16.355Z,17.50
2022-12-13T13:42:16.817Z,18.83
2022-12-13T13:45:16.914Z,16.27
2022-12-13T13:47:45.434Z,19.90
2022-12-13T13:50:46.706Z,19.30
2022-12-13T13:53:49.930Z,14.23
2022-12-13T13:56:50.024Z,18.27
2022-12-13T13:59:55.478Z,17.20
2022-12-13T14:03:22.173Z,19.17
2022-12-13T14:06:21.893Z,17.93
2022-12-13T14:09:07.674Z,15.57
2022-12-13T14:12:04.933Z,16.87
2022-12-13T14:15:16.542Z,20.47
2022-12-13T14:18:27.232Z,19.33
2022-12-13T14:21:00.815Z,19.50
2022-12-13T14:23:39.512Z,20.07
2022-12-13T14:26:29.163Z,17.67
2022-12-13T14:28:59.805Z,17.73
2022-12-13T14:31:31.270Z,18.33
2022-12-13T14:34:00.626Z,19.23
2022-12-13T14:36:32.207Z,18.83
2022-12-13T14:39:01.202Z,17.53
2022-12-13T14:41:29.006Z,20.40
2022-12-13T14:44:14.695Z,16.60
2022-12-13T14:46:50.370Z,18.97
2022-12-13T14:49:18.589Z,20.07
2022-12-13T14:51:48.133Z,19.87
2022-12-13T14:54:25.712Z,19.23
2022-12-13T14:56:59.188Z,21.67
2022-12-13T14:59:28.819Z,19.97
2022-12-13T15:01:58.895Z,18.43
2022-12-13T15:04:29.330Z,19.20
2022-12-13T15:07:00.962Z,17.50
2022-12-13T15:09:29.552Z,19.17
2022-12-13T15:12:04.308Z,18.17
2022-12-13T15:14:49.737Z,19.47
2022-12-13T15:17:27.316Z,17.53
2022-12-13T15:19:55.201Z,18.30
2022-12-13T15:22:23.056Z,19.33
2022-12-13T15:24:57.994Z,18.80
2022-12-13T15:27:26.183Z,17.47
2022-12-13T15:29:56.078Z,17.23
2022-12-13T15:32:24.219Z,19.77
2022-12-13T15:34:52.130Z,18.40
2022-12-13T15:37:32.872Z,20.50
2022-12-13T15:40:02.097Z,19.37
2022-12-13T15:42:32.692Z,17.83
2022-12-13T15:45:03.299Z,16.67
2022-12-13T15:47:30.955Z,17.97
2022-12-13T15:50:01.363Z,17.50
2022-12-13T15:52:35.811Z,19.80
2022-12-13T15:55:28.257Z,17.10
2022-12-13T15:57:58.092Z,18.93
2022-12-13T16:00:30.977Z,20.03
2022-12-13T16:03:09.567Z,22.27
2022-12-13T16:05:39.006Z,24.17
2022-12-13T16:08:13.933Z,20.27
2022-12-13T16:10:47.435Z,23.73
2022-12-13T16:13:26.101Z,20.47
2022-12-13T16:16:00.534Z,22.07
2022-12-13T16:18:44.366Z,23.80
2022-12-13T16:21:12.405Z,20.37
2022-12-13T16:23:40.228Z,21.43
2022-12-13T16:26:22.338Z,26.70
2022-12-13T16:28:50.462Z,19.83
2022-12-13T16:31:20.957Z,20.13
2022-12-13T16:33:48.648Z,28.40
2022-12-13T16:36:16.765Z,27.27
2022-12-13T16:38:44.564Z,25.33
2022-12-13T16:41:12.684Z,23.20
2022-12-13T16:43:45.973Z,21.87
2022-12-13T16:47:14.425Z,27.20
2022-12-13T16:49:06.778Z,22.30
2022-12-13T16:51:34.647Z,26.53
2022-12-13T16:54:03.486Z,28.03
2022-12-13T16:56:31.236Z,23.13
2022-12-13T16:58:59.715Z,19.37
2022-12-13T17:01:27.469Z,24.83
2022-12-13T17:03:55.460Z,20.70
2022-12-13T17:06:25.099Z,21.57
2022-12-13T17:08:52.839Z,21.87
2022-12-13T17:11:20.536Z,24.63
2022-12-13T17:13:49.648Z,22.83
2022-12-13T17:16:17.873Z,21.27
2022-12-13T17:18:45.668Z,22.77
2022-12-13T17:21:15.257Z,23.03
2022-12-13T17:23:44.563Z,27.70
2022-12-13T17:26:12.924Z,25.93
2022-12-13T17:28:41.066Z,23.80
2022-12-13T17:31:10.047Z,26.97
2022-12-13T17:33:37.845Z,17.83
2022-12-13T17:36:07.889Z,22.47
2022-12-13T17:38:35.856Z,23.97
2022-12-13T17:41:05.079Z,24.87
2022-12-13T17:43:35.486Z,25.17
2022-12-13T17:46:04.766Z,23.27
2022-12-13T17:48:40.009Z,25.83
2022-12-13T17:51:08.819Z,26.53
2022-12-13T17:53:36.804Z,26.00
2022-12-13T17:56:07.836Z,27.60
2022-12-13T17:58:36.093Z,25.70
2022-12-13T18:01:11.948Z,36.60
2022-12-13T18:03:39.891Z,25.20
2022-12-13T18:06:08.353Z,25.53
2022-12-13T18:08:36.990Z,24.83
2022-12-13T18:13:55.543Z,21.90
2022-12-13T18:16:26.695Z,20.60
2022-12-13T18:18:57.119Z,22.90
2022-12-13T18:21:25.916Z,22.20
2022-12-13T18:23:55.787Z,22.43
2022-12-13T18:26:25.499Z,18.53
2022-12-13T18:28:53.079Z,27.43
2022-12-13T18:31:23.026Z,24.43
2022-12-13T18:33:52.090Z,20.90
2022-12-13T18:36:20.791Z,19.30
2022-12-13T18:38:48.586Z,19.60
2022-12-13T18:41:18.378Z,22.93
2022-12-13T18:43:47.585Z,19.13
2022-12-13T18:46:16.518Z,17.73
2022-12-13T18:48:44.334Z,21.47
2022-12-13T18:51:12.022Z,22.27
2022-12-13T18:53:40.309Z,19.73
2022-12-13T18:56:16.079Z,20.30
2022-12-13T18:58:49.365Z,21.80
2022-12-13T19:01:17.767Z,17.73
2022-12-13T19:03:46.854Z,17.10
2022-12-13T19:06:16.760Z,17.70
2022-12-13T19:08:44.452Z,18.20
2022-12-13T19:11:12.135Z,16.50
2022-12-13T19:13:39.721Z,17.23
2022-12-13T19:16:12.089Z,15.03
2022-12-13T19:18:39.739Z,22.13
2022-12-13T19:21:08.666Z,19.63
2022-12-13T19:23:36.348Z,17.70
2022-12-13T19:26:07.647Z,18.43
2022-12-13T19:28:35.704Z,20.20
2022-12-13T19:31:09.585Z,17.47
2022-12-13T19:33:50.497Z,17.33
2022-12-13T19:36:18.896Z,19.57
2022-12-13T19:38:46.506Z,18.37
2022-12-13T19:41:16.482Z,16.50
2022-12-13T19:43:50.689Z,17.40
2022-12-13T19:46:20.571Z,16.90
2022-12-13T19:48:49.635Z,17.50
2022-12-13T19:51:17.882Z,16.87
2022-12-13T19:53:45.575Z,16.87
2022-12-13T19:56:17.498Z,17.50
2022-12-13T19:58:46.332Z,15.13
2022-12-13T20:01:14.428Z,16.20
2022-12-13T20:03:43.377Z,18.47
2022-12-13T20:06:14.413Z,19.43
2022-12-13T20:08:42.137Z,15.30
2022-12-13T20:11:11.625Z,16.83
2022-12-13T20:13:39.356Z,16.50
2022-12-13T20:16:07.622Z,15.17
2022-12-13T20:18:35.435Z,16.33
2022-12-13T20:21:12.846Z,15.73
2022-12-13T20:23:48.789Z,13.50
2022-12-13T20:26:19.159Z,14.80
2022-12-13T20:28:46.815Z,14.27
2022-12-13T20:31:16.184Z,14.13
2022-12-13T20:33:43.971Z,15.27
2022-12-13T20:36:28.592Z,17.13
2022-12-13T20:38:59.461Z,14.83
2022-12-13T20:41:29.199Z,14.67
2022-12-13T20:43:57.877Z,16.93
2022-12-13T20:46:26.528Z,14.33
2022-12-13T20:48:55.137Z,14.57
2022-12-13T20:51:24.190Z,14.47
2022-12-13T20:53:53.074Z,16.43
2022-12-13T20:56:23.095Z,15.87
2022-12-13T20:58:51.294Z,15.10
2022-12-13T21:01:20.558Z,21.60
2022-12-13T21:03:49.018Z,19.47
2022-12-13T21:06:16.722Z,14.30
2022-12-13T21:08:54.385Z,14.63
2022-12-13T21:11:27.724Z,15.60
2022-12-13T21:14:07.195Z,14.83
2022-12-13T21:16:40.096Z,15.17
2022-12-13T21:19:08.866Z,15.63
2022-12-13T21:21:36.640Z,12.57
2022-12-13T21:24:04.276Z,12.43
2022-12-13T21:26:35.769Z,13.13
2022-12-13T21:29:05.537Z,16.90
2022-12-13T21:31:33.365Z,14.60
2022-12-13T21:34:02.038Z,14.27
2022-12-13T21:36:31.549Z,14.93
2022-12-13T21:39:00.506Z,12.47
2022-12-13T21:41:28.495Z,12.40
2022-12-13T21:43:57.502Z,13.87
2022-12-13T21:46:41.427Z,15.40
2022-12-13T21:49:14.014Z,14.80
2022-12-13T21:51:47.423Z,11.60
2022-12-13T21:54:15.717Z,11.60
2022-12-13T21:57:01.008Z,13.63
2022-12-13T21:59:30.737Z,15.10
2022-12-13T22:02:12.591Z,17.00
2022-12-13T22:04:41.958Z,13.17
2022-12-13T22:07:10.290Z,14.63
2022-12-13T22:09:38.488Z,11.97
2022-12-13T22:12:08.607Z,14.63
2022-12-13T22:14:37.659Z,13.97
2022-12-13T22:17:05.261Z,13.40
2022-12-13T22:19:32.924Z,13.03
2022-12-13T22:22:00.736Z,16.27
2022-12-13T22:24:28.346Z,11.30
2022-12-13T22:26:55.937Z,14.70
2022-12-13T22:29:23.610Z,14.87
2022-12-13T22:31:52.569Z,12.53
2022-12-13T22:34:20.214Z,13.83
2022-12-13T22:36:48.362Z,14.00
2022-12-13T22:39:17.545Z,15.07
2022-12-13T22:41:45.459Z,14.03
2022-12-13T22:44:13.643Z,19.17
2022-12-13T22:46:41.390Z,15.10
2022-12-13T22:49:10.728Z,14.67
2022-12-13T22:51:38.511Z,13.07
2022-12-13T22:54:06.678Z,11.87
2022-12-13T22:56:34.700Z,12.77
2022-12-13T22:59:03.185Z,15.13
2022-12-13T23:01:32.281Z,19.83
2022-12-13T23:04:00.730Z,12.47
2022-12-13T23:06:31.162Z,13.73
2022-12-13T23:09:00.260Z,14.20
2022-12-13T23:11:46.036Z,15.80
2022-12-13T23:14:16.094Z,16.73
2022-12-13T23:16:44.503Z,11.67
2022-12-13T23:22:05.179Z,16.97
2022-12-13T23:24:32.742Z,13.53
2022-12-13T23:27:00.324Z,12.90
2022-12-13T23:29:27.878Z,12.70
2022-12-13T23:31:55.530Z,13.00
2022-12-13T23:34:23.122Z,14.27
2022-12-13T23:36:50.685Z,14.57
2022-12-13T23:39:19.643Z,11.30
2022-12-13T23:41:47.219Z,15.17
2022-12-13T23:44:14.900Z,12.60
2022-12-13T23:46:48.579Z,11.23
2022-12-13T23:49:17.074Z,12.47
2022-12-13T23:51:44.649Z,14.27
2022-12-13T23:54:16.196Z,15.60
2022-12-13T23:56:45.141Z,11.53
2022-12-13T23:59:12.925Z,18.70
